sensor_id;sensor_type;location;lat;lon;timestamp;temperature;humidity
11387;DHT22;5748;53.102;8.456;2023-04-24T00:01:58;16.00;54.40
11387;DHT22;5748;53.102;8.456;2023-04-24T00:04:29;16.00;53.20
11387;DHT22;5748;53.102;8.456;2023-04-24T00:06:57;16.00;54.10
11387;DHT22;5748;53.102;8.456;2023-04-24T00:09:25;16.00;53.40
11387;DHT22;5748;53.102;8.456;2023-04-24T00:11:52;18.00;55.40
11387;DHT22;5748;53.102;8.456;2023-04-24T00:14:20;15.90;53.70
11387;DHT22;5748;53.102;8.456;2023-04-24T00:16:47;15.90;54.60
11387;DHT22;5748;53.102;8.456;2023-04-24T00:19:15;17.70;55.20
11387;DHT22;5748;53.102;8.456;2023-04-24T00:21:42;15.90;56.10
11387;DHT22;5748;53.102;8.456;2023-04-24T00:24:09;15.90;55.80
11387;DHT22;5748;53.102;8.456;2023-04-24T00:26:48;15.90;55.50
11387;DHT22;5748;53.102;8.456;2023-04-24T00:29:31;15.90;54.80
11387;DHT22;5748;53.102;8.456;2023-04-24T00:32:25;15.90;55.20
11387;DHT22;5748;53.102;8.456;2023-04-24T00:34:56;16.70;56.80
11387;DHT22;5748;53.102;8.456;2023-04-24T00:37:35;15.80;55.60
11387;DHT22;5748;53.102;8.456;2023-04-24T00:40:02;15.70;56.40
11387;DHT22;5748;53.102;8.456;2023-04-24T00:42:30;15.70;55.30
11387;DHT22;5748;53.102;8.456;2023-04-24T00:44:57;15.70;55.20
11387;DHT22;5748;53.102;8.456;2023-04-24T00:47:25;15.60;55.00
11387;DHT22;5748;53.102;8.456;2023-04-24T00:50:04;15.50;54.60
11387;DHT22;5748;53.102;8.456;2023-04-24T00:52:31;15.40;55.40
11387;DHT22;5748;53.102;8.456;2023-04-24T00:54:59;14.80;54.00
11387;DHT22;5748;53.102;8.456;2023-04-24T00:57:26;15.30;54.00
11387;DHT22;5748;53.102;8.456;2023-04-24T00:59:55;15.30;53.80
11387;DHT22;5748;53.102;8.456;2023-04-24T01:02:22;15.30;53.90
11387;DHT22;5748;53.102;8.456;2023-04-24T01:08:17;15.50;55.20
11387;DHT22;5748;53.102;8.456;2023-04-24T01:10:44;15.20;54.40
11387;DHT22;5748;53.102;8.456;2023-04-24T01:13:14;15.20;54.20
11387;DHT22;5748;53.102;8.456;2023-04-24T01:15:41;15.20;54.50
11387;DHT22;5748;53.102;8.456;2023-04-24T01:18:08;15.20;54.10
11387;DHT22;5748;53.102;8.456;2023-04-24T01:20:37;15.10;53.90
11387;DHT22;5748;53.102;8.456;2023-04-24T01:23:07;15.80;54.20
11387;DHT22;5748;53.102;8.456;2023-04-24T01:25:37;15.30;53.80
11387;DHT22;5748;53.102;8.456;2023-04-24T01:28:34;15.10;53.30
11387;DHT22;5748;53.102;8.456;2023-04-24T01:31:01;15.20;53.90
11387;DHT22;5748;53.102;8.456;2023-04-24T01:33:31;15.20;53.20
11387;DHT22;5748;53.102;8.456;2023-04-24T01:35:58;15.20;53.80
11387;DHT22;5748;53.102;8.456;2023-04-24T01:38:38;15.30;54.40
11387;DHT22;5748;53.102;8.456;2023-04-24T01:41:05;15.20;54.50
11387;DHT22;5748;53.102;8.456;2023-04-24T01:43:42;15.20;53.70
11387;DHT22;5748;53.102;8.456;2023-04-24T01:46:09;15.20;54.20
11387;DHT22;5748;53.102;8.456;2023-04-24T01:48:36;15.20;53.90
11387;DHT22;5748;53.102;8.456;2023-04-24T01:51:10;15.30;54.60
11387;DHT22;5748;53.102;8.456;2023-04-24T01:53:38;15.20;54.80
11387;DHT22;5748;53.102;8.456;2023-04-24T01:56:06;15.20;55.40
11387;DHT22;5748;53.102;8.456;2023-04-24T01:58:33;15.10;55.50
11387;DHT22;5748;53.102;8.456;2023-04-24T02:01:00;15.20;56.30
11387;DHT22;5748;53.102;8.456;2023-04-24T02:03:27;15.10;55.00
11387;DHT22;5748;53.102;8.456;2023-04-24T02:06:02;15.10;55.70
11387;DHT22;5748;53.102;8.456;2023-04-24T02:08:29;15.10;55.80
11387;DHT22;5748;53.102;8.456;2023-04-24T02:11:32;17.10;57.30
11387;DHT22;5748;53.102;8.456;2023-04-24T02:14:00;15.10;55.90
11387;DHT22;5748;53.102;8.456;2023-04-24T02:16:28;15.00;55.70
11387;DHT22;5748;53.102;8.456;2023-04-24T02:18:57;15.10;55.70
11387;DHT22;5748;53.102;8.456;2023-04-24T02:21:24;15.10;56.00
11387;DHT22;5748;53.102;8.456;2023-04-24T02:23:52;15.00;55.40
11387;DHT22;5748;53.102;8.456;2023-04-24T02:26:19;15.10;56.20
11387;DHT22;5748;53.102;8.456;2023-04-24T02:28:48;15.20;55.70
11387;DHT22;5748;53.102;8.456;2023-04-24T02:31:15;15.00;55.20
11387;DHT22;5748;53.102;8.456;2023-04-24T02:33:47;15.00;55.90
11387;DHT22;5748;53.102;8.456;2023-04-24T02:36:14;15.00;55.70
11387;DHT22;5748;53.102;8.456;2023-04-24T02:38:41;15.20;55.50
11387;DHT22;5748;53.102;8.456;2023-04-24T02:41:08;15.00;54.60
11387;DHT22;5748;53.102;8.456;2023-04-24T02:43:37;15.00;54.90
11387;DHT22;5748;53.102;8.456;2023-04-24T02:46:06;15.50;55.70
11387;DHT22;5748;53.102;8.456;2023-04-24T02:48:52;15.60;55.40
11387;DHT22;5748;53.102;8.456;2023-04-24T02:51:19;14.90;56.00
11387;DHT22;5748;53.102;8.456;2023-04-24T02:57:00;14.80;56.20
11387;DHT22;5748;53.102;8.456;2023-04-24T02:59:28;14.80;55.90
11387;DHT22;5748;53.102;8.456;2023-04-24T03:01:56;14.80;55.30
11387;DHT22;5748;53.102;8.456;2023-04-24T03:04:42;14.80;57.60
11387;DHT22;5748;53.102;8.456;2023-04-24T03:07:09;14.70;57.20
11387;DHT22;5748;53.102;8.456;2023-04-24T03:09:36;14.70;56.30
11387;DHT22;5748;53.102;8.456;2023-04-24T03:12:03;14.60;57.30
11387;DHT22;5748;53.102;8.456;2023-04-24T03:14:49;14.60;56.80
11387;DHT22;5748;53.102;8.456;2023-04-24T03:17:17;15.40;60.20
11387;DHT22;5748;53.102;8.456;2023-04-24T03:19:45;16.60;58.60
11387;DHT22;5748;53.102;8.456;2023-04-24T03:22:12;14.60;57.60
11387;DHT22;5748;53.102;8.456;2023-04-24T03:24:39;14.60;57.00
11387;DHT22;5748;53.102;8.456;2023-04-24T03:27:06;15.30;57.50
11387;DHT22;5748;53.102;8.456;2023-04-24T03:29:33;14.50;57.60
11387;DHT22;5748;53.102;8.456;2023-04-24T03:32:12;15.40;58.10
11387;DHT22;5748;53.102;8.456;2023-04-24T03:34:40;14.50;57.70
11387;DHT22;5748;53.102;8.456;2023-04-24T03:37:07;14.60;57.00
11387;DHT22;5748;53.102;8.456;2023-04-24T03:39:34;15.90;57.50
11387;DHT22;5748;53.102;8.456;2023-04-24T03:42:01;16.40;58.80
11387;DHT22;5748;53.102;8.456;2023-04-24T03:44:28;14.70;56.70
11387;DHT22;5748;53.102;8.456;2023-04-24T03:46:55;14.60;56.90
11387;DHT22;5748;53.102;8.456;2023-04-24T03:49:22;14.70;57.10
11387;DHT22;5748;53.102;8.456;2023-04-24T03:51:50;14.60;58.00
11387;DHT22;5748;53.102;8.456;2023-04-24T03:54:18;14.60;57.00
11387;DHT22;5748;53.102;8.456;2023-04-24T03:56:45;14.70;57.20
11387;DHT22;5748;53.102;8.456;2023-04-24T04:02:20;14.60;57.50
11387;DHT22;5748;53.102;8.456;2023-04-24T04:04:54;14.60;57.70
11387;DHT22;5748;53.102;8.456;2023-04-24T04:07:23;14.60;57.70
11387;DHT22;5748;53.102;8.456;2023-04-24T04:09:50;14.60;57.00
11387;DHT22;5748;53.102;8.456;2023-04-24T04:12:17;14.60;57.60
11387;DHT22;5748;53.102;8.456;2023-04-24T04:14:44;14.60;58.60
11387;DHT22;5748;53.102;8.456;2023-04-24T04:17:11;14.60;57.20
11387;DHT22;5748;53.102;8.456;2023-04-24T04:19:38;14.60;57.60
11387;DHT22;5748;53.102;8.456;2023-04-24T04:22:05;16.00;58.50
11387;DHT22;5748;53.102;8.456;2023-04-24T04:24:34;14.70;57.60
11387;DHT22;5748;53.102;8.456;2023-04-24T04:27:03;14.60;57.80
11387;DHT22;5748;53.102;8.456;2023-04-24T04:29:31;14.60;57.60
11387;DHT22;5748;53.102;8.456;2023-04-24T04:31:58;14.60;58.10
11387;DHT22;5748;53.102;8.456;2023-04-24T04:34:25;14.60;57.00
11387;DHT22;5748;53.102;8.456;2023-04-24T04:36:52;14.60;57.20
11387;DHT22;5748;53.102;8.456;2023-04-24T04:39:19;14.60;57.50
11387;DHT22;5748;53.102;8.456;2023-04-24T04:41:50;14.60;57.70
11387;DHT22;5748;53.102;8.456;2023-04-24T04:44:17;14.60;57.50
11387;DHT22;5748;53.102;8.456;2023-04-24T04:46:44;14.70;57.20
11387;DHT22;5748;53.102;8.456;2023-04-24T04:49:11;14.60;57.90
11387;DHT22;5748;53.102;8.456;2023-04-24T04:51:38;14.60;57.10
11387;DHT22;5748;53.102;8.456;2023-04-24T04:54:40;14.70;57.60
11387;DHT22;5748;53.102;8.456;2023-04-24T04:57:08;14.70;58.40
11387;DHT22;5748;53.102;8.456;2023-04-24T04:59:35;14.70;57.50
11387;DHT22;5748;53.102;8.456;2023-04-24T05:02:09;14.70;57.00
11387;DHT22;5748;53.102;8.456;2023-04-24T05:04:37;14.70;57.10
11387;DHT22;5748;53.102;8.456;2023-04-24T05:07:04;14.70;57.10
11387;DHT22;5748;53.102;8.456;2023-04-24T05:09:31;14.70;56.90
11387;DHT22;5748;53.102;8.456;2023-04-24T05:11:58;14.80;56.90
11387;DHT22;5748;53.102;8.456;2023-04-24T05:14:26;14.70;56.80
11387;DHT22;5748;53.102;8.456;2023-04-24T05:16:53;14.70;57.60
11387;DHT22;5748;53.102;8.456;2023-04-24T05:19:20;14.60;57.80
11387;DHT22;5748;53.102;8.456;2023-04-24T05:21:47;14.70;57.60
11387;DHT22;5748;53.102;8.456;2023-04-24T05:24:14;14.70;57.40
11387;DHT22;5748;53.102;8.456;2023-04-24T05:26:47;14.70;57.70
11387;DHT22;5748;53.102;8.456;2023-04-24T05:29:14;14.70;57.90
11387;DHT22;5748;53.102;8.456;2023-04-24T05:31:42;14.70;57.80
11387;DHT22;5748;53.102;8.456;2023-04-24T05:34:09;14.90;57.70
11387;DHT22;5748;53.102;8.456;2023-04-24T05:36:36;14.70;57.60
11387;DHT22;5748;53.102;8.456;2023-04-24T05:39:03;14.80;57.10
11387;DHT22;5748;53.102;8.456;2023-04-24T05:41:30;14.80;57.90
11387;DHT22;5748;53.102;8.456;2023-04-24T05:43:57;15.00;57.50
11387;DHT22;5748;53.102;8.456;2023-04-24T05:46:24;14.80;57.30
11387;DHT22;5748;53.102;8.456;2023-04-24T05:48:52;14.80;57.40
11387;DHT22;5748;53.102;8.456;2023-04-24T05:51:36;14.90;57.40
11387;DHT22;5748;53.102;8.456;2023-04-24T05:54:04;14.90;57.60
11387;DHT22;5748;53.102;8.456;2023-04-24T05:56:45;14.90;57.20
11387;DHT22;5748;53.102;8.456;2023-04-24T05:59:12;15.00;57.60
11387;DHT22;5748;53.102;8.456;2023-04-24T06:01:39;15.00;56.80
11387;DHT22;5748;53.102;8.456;2023-04-24T06:04:08;15.10;56.90
11387;DHT22;5748;53.102;8.456;2023-04-24T06:06:35;15.10;57.60
11387;DHT22;5748;53.102;8.456;2023-04-24T06:09:03;15.10;57.00
11387;DHT22;5748;53.102;8.456;2023-04-24T06:11:30;15.10;57.40
11387;DHT22;5748;53.102;8.456;2023-04-24T06:13:57;15.10;56.90
11387;DHT22;5748;53.102;8.456;2023-04-24T06:16:24;15.10;57.00
11387;DHT22;5748;53.102;8.456;2023-04-24T06:18:59;15.00;57.20
11387;DHT22;5748;53.102;8.456;2023-04-24T06:21:28;15.00;57.80
11387;DHT22;5748;53.102;8.456;2023-04-24T06:23:57;15.00;57.20
11387;DHT22;5748;53.102;8.456;2023-04-24T06:26:31;15.10;57.40
11387;DHT22;5748;53.102;8.456;2023-04-24T06:28:58;15.00;57.20
11387;DHT22;5748;53.102;8.456;2023-04-24T06:31:25;15.10;57.20
11387;DHT22;5748;53.102;8.456;2023-04-24T06:33:52;15.10;57.30
11387;DHT22;5748;53.102;8.456;2023-04-24T06:36:21;15.10;57.50
11387;DHT22;5748;53.102;8.456;2023-04-24T06:38:50;15.10;57.30
11387;DHT22;5748;53.102;8.456;2023-04-24T06:41:26;15.10;57.70
11387;DHT22;5748;53.102;8.456;2023-04-24T06:43:53;15.00;57.90
11387;DHT22;5748;53.102;8.456;2023-04-24T06:46:20;15.00;57.30
11387;DHT22;5748;53.102;8.456;2023-04-24T06:48:50;15.00;57.50
11387;DHT22;5748;53.102;8.456;2023-04-24T06:51:29;15.00;57.20
11387;DHT22;5748;53.102;8.456;2023-04-24T06:54:00;15.10;57.90
11387;DHT22;5748;53.102;8.456;2023-04-24T06:56:41;15.10;57.80
11387;DHT22;5748;53.102;8.456;2023-04-24T06:59:28;15.10;58.10
11387;DHT22;5748;53.102;8.456;2023-04-24T07:01:56;15.10;58.00
11387;DHT22;5748;53.102;8.456;2023-04-24T07:04:38;15.10;57.50
11387;DHT22;5748;53.102;8.456;2023-04-24T07:07:18;15.10;58.00
11387;DHT22;5748;53.102;8.456;2023-04-24T07:13:07;15.10;57.90
11387;DHT22;5748;53.102;8.456;2023-04-24T07:15:45;15.10;57.50
11387;DHT22;5748;53.102;8.456;2023-04-24T07:18:14;15.20;58.20
11387;DHT22;5748;53.102;8.456;2023-04-24T07:20:41;15.10;57.50
11387;DHT22;5748;53.102;8.456;2023-04-24T07:23:08;15.20;58.00
11387;DHT22;5748;53.102;8.456;2023-04-24T07:25:36;15.20;57.90
11387;DHT22;5748;53.102;8.456;2023-04-24T07:28:04;15.20;57.70
11387;DHT22;5748;53.102;8.456;2023-04-24T07:30:46;15.30;58.10
11387;DHT22;5748;53.102;8.456;2023-04-24T07:33:13;15.30;58.70
11387;DHT22;5748;53.102;8.456;2023-04-24T07:35:40;15.30;58.10
11387;DHT22;5748;53.102;8.456;2023-04-24T07:38:08;15.40;57.90
11387;DHT22;5748;53.102;8.456;2023-04-24T07:40:36;15.40;57.70
11387;DHT22;5748;53.102;8.456;2023-04-24T07:43:03;15.40;57.50
11387;DHT22;5748;53.102;8.456;2023-04-24T07:45:30;15.60;57.30
11387;DHT22;5748;53.102;8.456;2023-04-24T07:48:02;15.60;57.10
11387;DHT22;5748;53.102;8.456;2023-04-24T07:50:40;15.70;56.80
11387;DHT22;5748;53.102;8.456;2023-04-24T07:53:07;15.80;56.70
11387;DHT22;5748;53.102;8.456;2023-04-24T07:55:34;15.80;56.40
11387;DHT22;5748;53.102;8.456;2023-04-24T07:58:03;15.80;56.40
11387;DHT22;5748;53.102;8.456;2023-04-24T08:00:29;15.80;56.10
11387;DHT22;5748;53.102;8.456;2023-04-24T08:02:56;15.80;56.00
11387;DHT22;5748;53.102;8.456;2023-04-24T08:05:23;15.80;56.00
11387;DHT22;5748;53.102;8.456;2023-04-24T08:07:53;16.50;56.50
11387;DHT22;5748;53.102;8.456;2023-04-24T08:10:20;15.90;56.00
11387;DHT22;5748;53.102;8.456;2023-04-24T08:12:47;15.90;56.10
11387;DHT22;5748;53.102;8.456;2023-04-24T08:15:16;15.80;55.90
11387;DHT22;5748;53.102;8.456;2023-04-24T08:17:43;15.90;56.00
11387;DHT22;5748;53.102;8.456;2023-04-24T08:20:11;15.90;56.00
11387;DHT22;5748;53.102;8.456;2023-04-24T08:22:39;15.90;56.00
11387;DHT22;5748;53.102;8.456;2023-04-24T08:25:07;16.00;56.00
11387;DHT22;5748;53.102;8.456;2023-04-24T08:27:35;15.90;55.70
11387;DHT22;5748;53.102;8.456;2023-04-24T08:30:04;15.90;55.60
11387;DHT22;5748;53.102;8.456;2023-04-24T08:32:34;15.90;55.50
11387;DHT22;5748;53.102;8.456;2023-04-24T08:35:01;15.90;55.50
11387;DHT22;5748;53.102;8.456;2023-04-24T08:37:55;15.90;55.60
11387;DHT22;5748;53.102;8.456;2023-04-24T08:40:27;15.90;55.80
11387;DHT22;5748;53.102;8.456;2023-04-24T08:42:55;16.00;55.80
11387;DHT22;5748;53.102;8.456;2023-04-24T08:45:23;16.00;55.50
11387;DHT22;5748;53.102;8.456;2023-04-24T08:47:53;16.00;55.50
11387;DHT22;5748;53.102;8.456;2023-04-24T08:50:27;16.00;55.50
11387;DHT22;5748;53.102;8.456;2023-04-24T08:52:55;16.00;55.50
11387;DHT22;5748;53.102;8.456;2023-04-24T08:55:24;16.00;55.40
11387;DHT22;5748;53.102;8.456;2023-04-24T08:57:52;15.90;55.20
11387;DHT22;5748;53.102;8.456;2023-04-24T09:00:20;16.00;55.40
11387;DHT22;5748;53.102;8.456;2023-04-24T09:02:49;15.90;55.20
11387;DHT22;5748;53.102;8.456;2023-04-24T09:05:30;16.00;55.20
11387;DHT22;5748;53.102;8.456;2023-04-24T09:08:16;15.90;55.30
11387;DHT22;5748;53.102;8.456;2023-04-24T09:14:04;15.80;55.30
11387;DHT22;5748;53.102;8.456;2023-04-24T09:16:49;15.80;55.50
11387;DHT22;5748;53.102;8.456;2023-04-24T09:19:24;15.60;56.20
11387;DHT22;5748;53.102;8.456;2023-04-24T09:22:11;15.60;55.90
11387;DHT22;5748;53.102;8.456;2023-04-24T09:24:41;15.50;56.10
11387;DHT22;5748;53.102;8.456;2023-04-24T09:27:28;15.50;55.70
11387;DHT22;5748;53.102;8.456;2023-04-24T09:29:55;15.40;56.20
11387;DHT22;5748;53.102;8.456;2023-04-24T09:32:31;15.40;56.30
11387;DHT22;5748;53.102;8.456;2023-04-24T09:35:16;15.60;57.00
11387;DHT22;5748;53.102;8.456;2023-04-24T09:37:57;15.40;56.90
11387;DHT22;5748;53.102;8.456;2023-04-24T09:40:30;15.40;56.50
11387;DHT22;5748;53.102;8.456;2023-04-24T09:43:01;15.40;56.60
11387;DHT22;5748;53.102;8.456;2023-04-24T09:45:28;15.50;56.70
11387;DHT22;5748;53.102;8.456;2023-04-24T09:48:09;15.50;56.80
11387;DHT22;5748;53.102;8.456;2023-04-24T09:50:36;15.60;57.10
11387;DHT22;5748;53.102;8.456;2023-04-24T09:53:12;15.70;57.00
11387;DHT22;5748;53.102;8.456;2023-04-24T09:55:39;15.90;56.90
11387;DHT22;5748;53.102;8.456;2023-04-24T09:58:09;16.10;57.00
11387;DHT22;5748;53.102;8.456;2023-04-24T10:00:36;16.10;56.80
11387;DHT22;5748;53.102;8.456;2023-04-24T10:03:04;16.20;56.60
11387;DHT22;5748;53.102;8.456;2023-04-24T10:05:32;16.40;56.50
11387;DHT22;5748;53.102;8.456;2023-04-24T10:08:03;16.40;56.20
11387;DHT22;5748;53.102;8.456;2023-04-24T10:10:35;16.50;56.20
11387;DHT22;5748;53.102;8.456;2023-04-24T10:13:19;16.50;56.00
11387;DHT22;5748;53.102;8.456;2023-04-24T10:15:47;16.50;56.10
11387;DHT22;5748;53.102;8.456;2023-04-24T10:18:15;16.40;55.80
11387;DHT22;5748;53.102;8.456;2023-04-24T10:20:43;16.50;55.90
11387;DHT22;5748;53.102;8.456;2023-04-24T10:23:38;16.50;56.00
11387;DHT22;5748;53.102;8.456;2023-04-24T10:26:09;16.50;55.80
11387;DHT22;5748;53.102;8.456;2023-04-24T10:28:41;16.50;55.50
11387;DHT22;5748;53.102;8.456;2023-04-24T10:31:09;16.40;55.50
11387;DHT22;5748;53.102;8.456;2023-04-24T10:33:42;16.30;55.60
11387;DHT22;5748;53.102;8.456;2023-04-24T10:36:22;16.30;55.60
11387;DHT22;5748;53.102;8.456;2023-04-24T10:39:07;16.30;55.90
11387;DHT22;5748;53.102;8.456;2023-04-24T10:41:40;16.20;55.80
11387;DHT22;5748;53.102;8.456;2023-04-24T10:44:08;16.10;55.60
11387;DHT22;5748;53.102;8.456;2023-04-24T10:46:36;16.20;55.80
11387;DHT22;5748;53.102;8.456;2023-04-24T10:49:14;16.10;56.00
11387;DHT22;5748;53.102;8.456;2023-04-24T10:51:48;16.00;56.00
11387;DHT22;5748;53.102;8.456;2023-04-24T10:54:40;16.00;56.30
11387;DHT22;5748;53.102;8.456;2023-04-24T10:57:38;16.00;56.70
11387;DHT22;5748;53.102;8.456;2023-04-24T11:00:21;16.00;56.50
11387;DHT22;5748;53.102;8.456;2023-04-24T11:02:48;15.90;56.30
11387;DHT22;5748;53.102;8.456;2023-04-24T11:05:19;15.90;56.10
11387;DHT22;5748;53.102;8.456;2023-04-24T11:11:01;15.90;56.40
11387;DHT22;5748;53.102;8.456;2023-04-24T11:14:02;15.90;56.00
11387;DHT22;5748;53.102;8.456;2023-04-24T11:16:38;15.90;56.50
11387;DHT22;5748;53.102;8.456;2023-04-24T11:19:17;15.90;56.20
11387;DHT22;5748;53.102;8.456;2023-04-24T11:21:47;15.80;56.30
11387;DHT22;5748;53.102;8.456;2023-04-24T11:24:28;15.70;56.60
11387;DHT22;5748;53.102;8.456;2023-04-24T11:26:58;15.70;57.10
11387;DHT22;5748;53.102;8.456;2023-04-24T11:29:46;15.80;56.70
11387;DHT22;5748;53.102;8.456;2023-04-24T11:32:30;15.60;58.00
11387;DHT22;5748;53.102;8.456;2023-04-24T11:35:14;15.50;57.50
11387;DHT22;5748;53.102;8.456;2023-04-24T11:37:49;15.50;57.30
11387;DHT22;5748;53.102;8.456;2023-04-24T11:40:18;15.40;57.40
11387;DHT22;5748;53.102;8.456;2023-04-24T11:43:00;15.40;57.30
11387;DHT22;5748;53.102;8.456;2023-04-24T11:45:31;15.30;57.40
11387;DHT22;5748;53.102;8.456;2023-04-24T11:48:05;15.30;57.70
11387;DHT22;5748;53.102;8.456;2023-04-24T11:50:37;15.20;57.70
11387;DHT22;5748;53.102;8.456;2023-04-24T11:53:04;15.20;57.20
11387;DHT22;5748;53.102;8.456;2023-04-24T11:55:31;15.00;57.40
11387;DHT22;5748;53.102;8.456;2023-04-24T11:57:59;15.00;57.60
11387;DHT22;5748;53.102;8.456;2023-04-24T12:00:56;15.00;58.50
11387;DHT22;5748;53.102;8.456;2023-04-24T12:03:31;14.90;59.20
11387;DHT22;5748;53.102;8.456;2023-04-24T12:06:06;14.90;58.00
11387;DHT22;5748;53.102;8.456;2023-04-24T12:08:40;14.80;58.40
11387;DHT22;5748;53.102;8.456;2023-04-24T12:11:08;14.80;58.30
11387;DHT22;5748;53.102;8.456;2023-04-24T12:13:52;14.80;57.90
11387;DHT22;5748;53.102;8.456;2023-04-24T12:16:27;14.70;58.80
11387;DHT22;5748;53.102;8.456;2023-04-24T12:18:58;14.70;58.50
11387;DHT22;5748;53.102;8.456;2023-04-24T12:22:01;14.80;58.30
11387;DHT22;5748;53.102;8.456;2023-04-24T12:24:30;14.70;59.50
11387;DHT22;5748;53.102;8.456;2023-04-24T12:26:58;14.70;58.60
11387;DHT22;5748;53.102;8.456;2023-04-24T12:29:27;14.60;58.80
11387;DHT22;5748;53.102;8.456;2023-04-24T12:31:55;14.70;58.80
11387;DHT22;5748;53.102;8.456;2023-04-24T12:34:25;14.60;59.90
11387;DHT22;5748;53.102;8.456;2023-04-24T12:36:52;14.50;60.20
11387;DHT22;5748;53.102;8.456;2023-04-24T12:39:20;14.30;59.60
11387;DHT22;5748;53.102;8.456;2023-04-24T12:41:54;14.30;60.40
11387;DHT22;5748;53.102;8.456;2023-04-24T12:44:29;14.30;59.80
11387;DHT22;5748;53.102;8.456;2023-04-24T12:46:58;14.10;59.90
11387;DHT22;5748;53.102;8.456;2023-04-24T12:49:30;14.00;59.60
11387;DHT22;5748;53.102;8.456;2023-04-24T12:51:58;13.90;59.80
11387;DHT22;5748;53.102;8.456;2023-04-24T12:54:25;13.90;60.40
11387;DHT22;5748;53.102;8.456;2023-04-24T12:56:52;13.80;60.00
11387;DHT22;5748;53.102;8.456;2023-04-24T12:59:19;13.80;60.10
11387;DHT22;5748;53.102;8.456;2023-04-24T13:01:46;13.70;60.00
11387;DHT22;5748;53.102;8.456;2023-04-24T13:04:15;13.70;60.80
11387;DHT22;5748;53.102;8.456;2023-04-24T13:06:42;13.70;60.40
11387;DHT22;5748;53.102;8.456;2023-04-24T13:09:09;13.70;60.80
11387;DHT22;5748;53.102;8.456;2023-04-24T13:11:36;13.70;60.40
11387;DHT22;5748;53.102;8.456;2023-04-24T13:14:03;13.70;60.80
11387;DHT22;5748;53.102;8.456;2023-04-24T13:16:30;13.60;60.30
11387;DHT22;5748;53.102;8.456;2023-04-24T13:18:58;13.70;60.60
11387;DHT22;5748;53.102;8.456;2023-04-24T13:21:27;13.60;60.00
11387;DHT22;5748;53.102;8.456;2023-04-24T13:23:55;13.60;60.10
11387;DHT22;5748;53.102;8.456;2023-04-24T13:26:28;13.50;59.60
11387;DHT22;5748;53.102;8.456;2023-04-24T13:29:13;13.50;60.80
11387;DHT22;5748;53.102;8.456;2023-04-24T13:31:40;13.50;61.70
11387;DHT22;5748;53.102;8.456;2023-04-24T13:34:07;13.40;60.30
11387;DHT22;5748;53.102;8.456;2023-04-24T13:36:36;13.40;60.30
11387;DHT22;5748;53.102;8.456;2023-04-24T13:39:03;13.40;60.80
11387;DHT22;5748;53.102;8.456;2023-04-24T13:41:34;13.40;60.90
11387;DHT22;5748;53.102;8.456;2023-04-24T13:44:01;13.30;60.10
11387;DHT22;5748;53.102;8.456;2023-04-24T13:46:28;13.30;60.50
11387;DHT22;5748;53.102;8.456;2023-04-24T13:48:55;13.30;60.70
11387;DHT22;5748;53.102;8.456;2023-04-24T13:51:23;13.20;61.00
11387;DHT22;5748;53.102;8.456;2023-04-24T13:53:54;13.20;60.50
11387;DHT22;5748;53.102;8.456;2023-04-24T13:56:22;13.30;60.50
11387;DHT22;5748;53.102;8.456;2023-04-24T13:58:49;13.20;60.50
11387;DHT22;5748;53.102;8.456;2023-04-24T14:01:16;13.20;60.20
11387;DHT22;5748;53.102;8.456;2023-04-24T14:03:43;13.20;60.20
11387;DHT22;5748;53.102;8.456;2023-04-24T14:06:10;13.20;60.00
11387;DHT22;5748;53.102;8.456;2023-04-24T14:08:37;13.20;59.90
11387;DHT22;5748;53.102;8.456;2023-04-24T14:11:06;13.20;60.90
11387;DHT22;5748;53.102;8.456;2023-04-24T14:13:36;13.20;60.30
11387;DHT22;5748;53.102;8.456;2023-04-24T14:16:05;13.20;61.00
11387;DHT22;5748;53.102;8.456;2023-04-24T14:18:38;13.20;60.50
11387;DHT22;5748;53.102;8.456;2023-04-24T14:21:06;13.20;60.30
11387;DHT22;5748;53.102;8.456;2023-04-24T14:23:33;13.20;60.30
11387;DHT22;5748;53.102;8.456;2023-04-24T14:26:00;13.20;59.80
11387;DHT22;5748;53.102;8.456;2023-04-24T14:28:29;13.30;60.00
11387;DHT22;5748;53.102;8.456;2023-04-24T14:30:56;13.20;60.20
11387;DHT22;5748;53.102;8.456;2023-04-24T14:33:23;13.20;60.60
11387;DHT22;5748;53.102;8.456;2023-04-24T14:35:50;13.20;60.50
11387;DHT22;5748;53.102;8.456;2023-04-24T14:38:16;13.20;61.00
11387;DHT22;5748;53.102;8.456;2023-04-24T14:40:44;13.20;60.90
11387;DHT22;5748;53.102;8.456;2023-04-24T14:43:11;13.20;60.50
11387;DHT22;5748;53.102;8.456;2023-04-24T14:45:39;13.20;60.80
11387;DHT22;5748;53.102;8.456;2023-04-24T14:48:06;13.20;61.00
11387;DHT22;5748;53.102;8.456;2023-04-24T14:50:34;13.20;60.70
11387;DHT22;5748;53.102;8.456;2023-04-24T14:53:01;13.30;61.10
11387;DHT22;5748;53.102;8.456;2023-04-24T14:55:29;13.20;61.30
11387;DHT22;5748;53.102;8.456;2023-04-24T14:57:57;13.20;60.50
11387;DHT22;5748;53.102;8.456;2023-04-24T15:00:24;13.30;60.50
11387;DHT22;5748;53.102;8.456;2023-04-24T15:02:52;13.30;60.40
11387;DHT22;5748;53.102;8.456;2023-04-24T15:05:20;13.20;61.70
11387;DHT22;5748;53.102;8.456;2023-04-24T15:07:48;13.20;61.00
11387;DHT22;5748;53.102;8.456;2023-04-24T15:10:15;13.20;61.00
11387;DHT22;5748;53.102;8.456;2023-04-24T15:12:43;13.20;60.50
11387;DHT22;5748;53.102;8.456;2023-04-24T15:15:10;13.20;60.80
11387;DHT22;5748;53.102;8.456;2023-04-24T15:17:37;13.10;61.20
11387;DHT22;5748;53.102;8.456;2023-04-24T15:20:06;13.20;60.90
11387;DHT22;5748;53.102;8.456;2023-04-24T15:22:35;13.20;60.70
11387;DHT22;5748;53.102;8.456;2023-04-24T15:25:02;13.20;61.00
11387;DHT22;5748;53.102;8.456;2023-04-24T15:27:39;13.20;60.70
11387;DHT22;5748;53.102;8.456;2023-04-24T15:30:08;13.30;61.20
11387;DHT22;5748;53.102;8.456;2023-04-24T15:32:36;13.30;60.70
11387;DHT22;5748;53.102;8.456;2023-04-24T15:35:05;13.40;61.30
11387;DHT22;5748;53.102;8.456;2023-04-24T15:37:39;13.40;60.90
11387;DHT22;5748;53.102;8.456;2023-04-24T15:40:16;13.40;60.60
11387;DHT22;5748;53.102;8.456;2023-04-24T15:42:45;13.50;60.90
11387;DHT22;5748;53.102;8.456;2023-04-24T15:45:13;13.50;60.80
11387;DHT22;5748;53.102;8.456;2023-04-24T15:47:40;13.60;60.60
11387;DHT22;5748;53.102;8.456;2023-04-24T15:50:09;13.50;60.60
11387;DHT22;5748;53.102;8.456;2023-04-24T15:52:38;13.40;61.00
11387;DHT22;5748;53.102;8.456;2023-04-24T15:55:05;13.40;60.70
11387;DHT22;5748;53.102;8.456;2023-04-24T15:57:32;13.30;60.30
11387;DHT22;5748;53.102;8.456;2023-04-24T15:59:59;13.30;60.00
11387;DHT22;5748;53.102;8.456;2023-04-24T16:02:26;15.00;62.10
11387;DHT22;5748;53.102;8.456;2023-04-24T16:04:53;13.30;60.40
11387;DHT22;5748;53.102;8.456;2023-04-24T16:07:22;13.30;60.20
11387;DHT22;5748;53.102;8.456;2023-04-24T16:10:08;13.30;60.30
11387;DHT22;5748;53.102;8.456;2023-04-24T16:12:52;13.30;61.00
11387;DHT22;5748;53.102;8.456;2023-04-24T16:15:22;13.30;60.80
11387;DHT22;5748;53.102;8.456;2023-04-24T16:18:07;13.30;61.00
11387;DHT22;5748;53.102;8.456;2023-04-24T16:20:41;13.30;60.90
11387;DHT22;5748;53.102;8.456;2023-04-24T16:23:12;13.30;60.50
11387;DHT22;5748;53.102;8.456;2023-04-24T16:25:57;13.30;60.70
11387;DHT22;5748;53.102;8.456;2023-04-24T16:28:30;13.30;61.30